sensor_id;sensor_type;location;lat;lon;timestamp;pressure;altitude;pressure_sealevel;temperature;humidity
55032;BME280;40928;51.076;7.950;2023-08-24T00:01:10;97364.66;;;14.82;100.00
55032;BME280;40928;51.076;7.950;2023-08-24T00:03:40;97372.72;;;14.76;100.00
55032;BME280;40928;51.076;7.950;2023-08-24T00:06:05;97363.28;;;14.74;100.00
55032;BME280;40928;51.076;7.950;2023-08-24T00:08:31;97374.03;;;14.74;100.00
55032;BME280;40928;51.076;7.950;2023-08-24T00:10:58;97376.97;;;14.72;100.00
55032;BME280;40928;51.076;7.950;2023-08-24T00:13:24;97373.72;;;14.70;100.00
55032;BME280;40928;51.076;7.950;2023-08-24T00:15:50;97357.53;;;14.65;100.00
55032;BME280;40928;51.076;7.950;2023-08-24T00:18:16;97362.28;;;14.53;100.00
55032;BME280;40928;51.076;7.950;2023-08-24T00:20:43;97371.38;;;14.46;100.00
55032;BME280;40928;51.076;7.950;2023-08-24T00:23:09;97369.22;;;14.49;100.00
55032;BME280;40928;51.076;7.950;2023-08-24T00:25:35;97371.91;;;14.49;100.00
55032;BME280;40928;51.076;7.950;2023-08-24T00:28:00;97371.91;;;14.49;100.00
55032;BME280;40928;51.076;7.950;2023-08-24T00:30:26;97373.78;;;14.48;100.00
55032;BME280;40928;51.076;7.950;2023-08-24T00:32:52;97371.09;;;14.48;100.00
55032;BME280;40928;51.076;7.950;2023-08-24T00:35:18;97366.53;;;14.49;100.00
55032;BME280;40928;51.076;7.950;2023-08-24T00:37:43;97354.19;;;14.48;100.00
55032;BME280;40928;51.076;7.950;2023-08-24T00:40:09;97355.19;;;14.41;100.00
55032;BME280;40928;51.076;7.950;2023-08-24T00:42:43;97349.81;;;14.41;100.00
55032;BME280;40928;51.076;7.950;2023-08-24T00:45:10;97347.13;;;14.41;100.00
55032;BME280;40928;51.076;7.950;2023-08-24T00:47:37;97350.63;;;14.42;100.00
55032;BME280;40928;51.076;7.950;2023-08-24T00:50:06;97348.47;;;14.39;100.00
55032;BME280;40928;51.076;7.950;2023-08-24T00:52:32;97349.53;;;14.38;100.00
55032;BME280;40928;51.076;7.950;2023-08-24T00:54:59;97343.09;;;14.39;100.00
55032;BME280;40928;51.076;7.950;2023-08-24T00:57:28;97346.56;;;14.39;100.00
55032;BME280;40928;51.076;7.950;2023-08-24T00:59:56;97355.69;;;14.38;100.00
55032;BME280;40928;51.076;7.950;2023-08-24T01:02:21;97348.47;;;14.39;100.00
55032;BME280;40928;51.076;7.950;2023-08-24T01:04:47;97354.06;;;14.37;100.00
55032;BME280;40928;51.076;7.950;2023-08-24T01:07:14;97343.84;;;14.34;100.00
55032;BME280;40928;51.076;7.950;2023-08-24T01:09:41;97343.31;;;14.32;100.00
55032;BME280;40928;51.076;7.950;2023-08-24T01:12:18;97342.75;;;14.30;100.00
55032;BME280;40928;51.076;7.950;2023-08-24T01:17:30;97347.78;;;14.26;100.00
55032;BME280;40928;51.076;7.950;2023-08-24T01:19:57;97342.44;;;14.26;100.00
55032;BME280;40928;51.076;7.950;2023-08-24T01:27:36;97332.44;;;14.22;100.00
55032;BME280;40928;51.076;7.950;2023-08-24T01:30:03;97345.66;;;14.23;100.00
55032;BME280;40928;51.076;7.950;2023-08-24T01:32:33;97340.78;;;14.20;100.00
55032;BME280;40928;51.076;7.950;2023-08-24T01:35:01;97337.81;;;14.22;100.00
55032;BME280;40928;51.076;7.950;2023-08-24T01:37:26;97334.00;;;14.18;100.00
55032;BME280;40928;51.076;7.950;2023-08-24T01:40:18;97339.38;;;14.18;100.00
55032;BME280;40928;51.076;7.950;2023-08-24T01:42:59;97332.09;;;14.13;100.00
55032;BME280;40928;51.076;7.950;2023-08-24T01:45:30;97328.84;;;14.11;100.00
55032;BME280;40928;51.076;7.950;2023-08-24T01:47:58;97319.72;;;14.07;100.00
55032;BME280;40928;51.076;7.950;2023-08-24T01:50:25;97322.63;;;14.05;100.00
55032;BME280;40928;51.076;7.950;2023-08-24T01:52:51;97320.44;;;14.02;100.00
55032;BME280;40928;51.076;7.950;2023-08-24T01:55:19;97313.66;;;13.94;100.00
55032;BME280;40928;51.076;7.950;2023-08-24T01:57:45;97319.34;;;13.98;100.00
55032;BME280;40928;51.076;7.950;2023-08-24T02:00:11;97308.59;;;13.98;100.00
55032;BME280;40928;51.076;7.950;2023-08-24T02:02:43;97308.34;;;13.99;100.00
55032;BME280;40928;51.076;7.950;2023-08-24T02:05:09;97307.50;;;13.94;100.00
55032;BME280;40928;51.076;7.950;2023-08-24T02:07:35;97310.19;;;13.94;100.00
55032;BME280;40928;51.076;7.950;2023-08-24T02:20:07;97319.19;;;13.82;100.00
55032;BME280;40928;51.076;7.950;2023-08-24T02:22:37;97316.50;;;13.82;100.00
55032;BME280;40928;51.076;7.950;2023-08-24T02:25:04;97314.88;;;13.81;100.00
55032;BME280;40928;51.076;7.950;2023-08-24T02:27:32;97307.59;;;13.77;100.00
55032;BME280;40928;51.076;7.950;2023-08-24T02:29:57;97308.31;;;13.72;100.00
55032;BME280;40928;51.076;7.950;2023-08-24T02:32:23;97298.13;;;13.69;100.00
55032;BME280;40928;51.076;7.950;2023-08-24T02:34:49;97305.72;;;13.77;100.00
55032;BME280;40928;51.076;7.950;2023-08-24T02:37:14;97306.28;;;13.79;100.00
55032;BME280;40928;51.076;7.950;2023-08-24T02:39:41;97310.31;;;13.82;100.00
55032;BME280;40928;51.076;7.950;2023-08-24T02:42:06;97296.91;;;13.82;100.00
55032;BME280;40928;51.076;7.950;2023-08-24T02:44:32;97302.22;;;13.77;100.00
55032;BME280;40928;51.076;7.950;2023-08-24T02:46:58;97297.84;;;13.70;100.00
55032;BME280;40928;51.076;7.950;2023-08-24T02:49:24;97290.88;;;13.69;100.00
55032;BME280;40928;51.076;7.950;2023-08-24T02:51:50;97282.53;;;13.66;100.00
55032;BME280;40928;51.076;7.950;2023-08-24T02:54:15;97286.81;;;13.67;100.00
55032;BME280;40928;51.076;7.950;2023-08-24T02:56:41;97285.25;;;13.71;100.00
55032;BME280;40928;51.076;7.950;2023-08-24T02:59:07;97279.88;;;13.71;100.00
55032;BME280;40928;51.076;7.950;2023-08-24T03:01:32;97283.13;;;13.73;100.00
55032;BME280;40928;51.076;7.950;2023-08-24T03:03:59;97286.13;;;13.77;100.00
55032;BME280;40928;51.076;7.950;2023-08-24T03:06:25;97285.31;;;13.76;100.00
55032;BME280;40928;51.076;7.950;2023-08-24T03:08:51;97300.34;;;13.77;100.00
55032;BME280;40928;51.076;7.950;2023-08-24T03:11:17;97297.66;;;13.77;100.00
55032;BME280;40928;51.076;7.950;2023-08-24T03:13:43;97303.03;;;13.77;100.00
55032;BME280;40928;51.076;7.950;2023-08-24T03:16:09;97302.47;;;13.75;100.00
55032;BME280;40928;51.076;7.950;2023-08-24T03:18:39;97308.91;;;13.74;100.00
55032;BME280;40928;51.076;7.950;2023-08-24T03:21:09;97304.34;;;13.75;100.00
55032;BME280;40928;51.076;7.950;2023-08-24T03:23:35;97309.72;;;13.75;100.00
55032;BME280;40928;51.076;7.950;2023-08-24T03:26:01;97312.41;;;13.75;100.00
55032;BME280;40928;51.076;7.950;2023-08-24T03:28:26;97295.97;;;13.71;100.00
55032;BME280;40928;51.076;7.950;2023-08-24T03:30:52;97301.91;;;13.73;100.00
55032;BME280;40928;51.076;7.950;2023-08-24T03:33:21;97300.53;;;13.70;100.00
55032;BME280;40928;51.076;7.950;2023-08-24T03:35:47;97304.59;;;13.73;100.00
55032;BME280;40928;51.076;7.950;2023-08-24T03:38:13;97294.97;;;13.77;100.00
55032;BME280;40928;51.076;7.950;2023-08-24T03:40:39;97287.75;;;13.78;100.00
55032;BME280;40928;51.076;7.950;2023-08-24T03:43:07;97286.44;;;13.80;100.00
55032;BME280;40928;51.076;7.950;2023-08-24T03:45:33;97284.81;;;13.79;100.00
55032;BME280;40928;51.076;7.950;2023-08-24T03:47:59;97278.94;;;13.82;100.00
55032;BME280;40928;51.076;7.950;2023-08-24T03:50:25;97279.78;;;13.88;100.00
55032;BME280;40928;51.076;7.950;2023-08-24T03:52:52;97280.91;;;13.92;100.00
55032;BME280;40928;51.076;7.950;2023-08-24T03:55:21;97288.44;;;13.95;100.00
55032;BME280;40928;51.076;7.950;2023-08-24T03:57:47;97287.94;;;13.98;100.00
55032;BME280;40928;51.076;7.950;2023-08-24T04:00:13;97272.88;;;13.97;100.00
55032;BME280;40928;51.076;7.950;2023-08-24T04:02:43;97276.41;;;13.98;100.00
55032;BME280;40928;51.076;7.950;2023-08-24T04:05:19;97279.31;;;13.96;100.00
55032;BME280;40928;51.076;7.950;2023-08-24T04:07:47;97276.41;;;13.98;100.00
55032;BME280;40928;51.076;7.950;2023-08-24T04:10:14;97276.41;;;14.03;100.00
55032;BME280;40928;51.076;7.950;2023-08-24T04:12:42;97282.34;;;14.05;100.00
55032;BME280;40928;51.076;7.950;2023-08-24T04:15:09;97272.72;;;14.09;100.00
55032;BME280;40928;51.076;7.950;2023-08-24T04:17:34;97277.59;;;14.12;100.00
55032;BME280;40928;51.076;7.950;2023-08-24T04:20:00;97282.47;;;14.15;100.00
55032;BME280;40928;51.076;7.950;2023-08-24T04:22:26;97287.84;;;14.21;100.00
55032;BME280;40928;51.076;7.950;2023-08-24T04:24:51;97293.53;;;14.24;100.00
55032;BME280;40928;51.076;7.950;2023-08-24T04:27:17;97302.97;;;14.27;100.00
55032;BME280;40928;51.076;7.950;2023-08-24T04:29:43;97303.53;;;14.29;100.00
55032;BME280;40928;51.076;7.950;2023-08-24T04:32:09;97318.03;;;14.33;100.00
55032;BME280;40928;51.076;7.950;2023-08-24T04:34:34;97328.84;;;14.38;100.00
55032;BME280;40928;51.076;7.950;2023-08-24T04:37:00;97325.66;;;14.41;100.00
55032;BME280;40928;51.076;7.950;2023-08-24T04:39:26;97340.69;;;14.42;100.00
55032;BME280;40928;51.076;7.950;2023-08-24T04:41:52;97340.69;;;14.42;100.00
55032;BME280;40928;51.076;7.950;2023-08-24T04:44:18;97338.56;;;14.44;100.00
55032;BME280;40928;51.076;7.950;2023-08-24T04:46:44;97339.38;;;14.45;100.00
55032;BME280;40928;51.076;7.950;2023-08-24T04:49:09;97341.81;;;14.46;100.00
55032;BME280;40928;51.076;7.950;2023-08-24T04:51:35;97336.44;;;14.46;100.00
55032;BME280;40928;51.076;7.950;2023-08-24T04:54:01;97337.25;;;14.47;100.00
55032;BME280;40928;51.076;7.950;2023-08-24T04:56:26;97336.69;;;14.45;100.00
55032;BME280;40928;51.076;7.950;2023-08-24T04:58:54;97329.47;;;14.51;100.00
55032;BME280;40928;51.076;7.950;2023-08-24T05:01:20;97320.91;;;14.54;100.00
55032;BME280;40928;51.076;7.950;2023-08-24T05:03:46;97313.94;;;14.58;100.00
55032;BME280;40928;51.076;7.950;2023-08-24T05:06:12;97326.88;;;14.61;100.00
55032;BME280;40928;51.076;7.950;2023-08-24T05:08:37;97314.50;;;14.60;100.00
55032;BME280;40928;51.076;7.950;2023-08-24T05:11:13;97320.97;;;14.64;100.00
55032;BME280;40928;51.076;7.950;2023-08-24T05:13:40;97310.78;;;14.66;100.00
55032;BME280;40928;51.076;7.950;2023-08-24T05:16:06;97317.28;;;14.70;100.00
55032;BME280;40928;51.076;7.950;2023-08-24T05:18:33;97312.19;;;14.74;100.00
55032;BME280;40928;51.076;7.950;2023-08-24T05:20:59;97316.81;;;14.79;100.00
55032;BME280;40928;51.076;7.950;2023-08-24T05:23:24;97316.28;;;14.82;100.00
55032;BME280;40928;51.076;7.950;2023-08-24T05:25:50;97323.03;;;14.84;100.00
55032;BME280;40928;51.076;7.950;2023-08-24T05:28:16;97321.44;;;14.88;100.00
55032;BME280;40928;51.076;7.950;2023-08-24T05:30:41;97325.22;;;14.92;100.00
55032;BME280;40928;51.076;7.950;2023-08-24T05:33:07;97324.72;;;14.96;100.00
55032;BME280;40928;51.076;7.950;2023-08-24T05:35:33;97330.38;;;14.99;100.00
55032;BME280;40928;51.076;7.950;2023-08-24T05:37:59;97333.63;;;15.01;100.00
55032;BME280;40928;51.076;7.950;2023-08-24T05:40:24;97341.19;;;15.04;100.00
55032;BME280;40928;51.076;7.950;2023-08-24T05:42:50;97344.41;;;15.06;100.00
55032;BME280;40928;51.076;7.950;2023-08-24T05:45:15;97341.47;;;15.08;100.00
55032;BME280;40928;51.076;7.950;2023-08-24T05:47:41;97342.00;;;15.10;100.00
55032;BME280;40928;51.076;7.950;2023-08-24T05:50:07;97345.25;;;15.12;100.00
55032;BME280;40928;51.076;7.950;2023-08-24T05:52:33;97326.44;;;15.12;100.00
55032;BME280;40928;51.076;7.950;2023-08-24T05:55:00;97318.09;;;15.14;100.00
55032;BME280;40928;51.076;7.950;2023-08-24T05:57:26;97310.56;;;15.16;100.00
55032;BME280;40928;51.076;7.950;2023-08-24T05:59:51;97311.41;;;15.16;100.00
55032;BME280;40928;51.076;7.950;2023-08-24T06:02:17;97292.28;;;15.18;100.00
55032;BME280;40928;51.076;7.950;2023-08-24T06:04:43;97289.59;;;15.18;100.00
55032;BME280;40928;51.076;7.950;2023-08-24T06:07:08;97292.81;;;15.15;100.00
55032;BME280;40928;51.076;7.950;2023-08-24T06:09:34;97282.06;;;15.15;100.00
55032;BME280;40928;51.076;7.950;2023-08-24T06:12:00;97280.97;;;15.16;100.00
55032;BME280;40928;51.076;7.950;2023-08-24T06:14:25;97267.00;;;15.19;100.00
55032;BME280;40928;51.076;7.950;2023-08-24T06:16:51;97257.34;;;15.23;100.00
55032;BME280;40928;51.076;7.950;2023-08-24T06:19:18;97249.56;;;15.27;100.00
55032;BME280;40928;51.076;7.950;2023-08-24T06:21:44;97240.13;;;15.29;100.00
55032;BME280;40928;51.076;7.950;2023-08-24T06:24:10;97220.00;;;15.32;100.00
55032;BME280;40928;51.076;7.950;2023-08-24T06:26:35;97206.25;;;15.33;100.00
55032;BME280;40928;51.076;7.950;2023-08-24T06:29:01;97198.47;;;15.37;100.00
55032;BME280;40928;51.076;7.950;2023-08-24T06:31:27;97196.88;;;15.41;100.00
55032;BME280;40928;51.076;7.950;2023-08-24T06:33:52;97203.88;;;15.47;100.00
55032;BME280;40928;51.076;7.950;2023-08-24T06:36:18;97212.22;;;15.51;100.00
55032;BME280;40928;51.076;7.950;2023-08-24T06:38:44;97211.41;;;15.50;100.00
55032;BME280;40928;51.076;7.950;2023-08-24T06:41:09;97212.22;;;15.51;100.00
55032;BME280;40928;51.076;7.950;2023-08-24T06:43:37;97204.16;;;15.56;100.00
55032;BME280;40928;51.076;7.950;2023-08-24T06:46:06;97201.75;;;15.60;100.00
55032;BME280;40928;51.076;7.950;2023-08-24T06:48:35;97200.41;;;15.67;100.00
55032;BME280;40928;51.076;7.950;2023-08-24T06:51:03;97199.06;;;15.75;100.00
55032;BME280;40928;51.076;7.950;2023-08-24T06:53:29;97202.03;;;15.84;100.00
55032;BME280;40928;51.076;7.950;2023-08-24T06:55:55;97191.28;;;15.89;100.00
55032;BME280;40928;51.076;7.950;2023-08-24T06:58:22;97188.06;;;15.97;100.00
55032;BME280;40928;51.076;7.950;2023-08-24T07:00:50;97186.19;;;16.08;100.00
55032;BME280;40928;51.076;7.950;2023-08-24T07:03:21;97175.41;;;16.19;100.00
55032;BME280;40928;51.076;7.950;2023-08-24T07:05:47;97167.56;;;16.27;100.00
55032;BME280;40928;51.076;7.950;2023-08-24T07:08:14;97155.13;;;16.37;100.00
55032;BME280;40928;51.076;7.950;2023-08-24T07:11:01;97153.50;;;16.51;100.00
55032;BME280;40928;51.076;7.950;2023-08-24T07:13:28;97140.28;;;16.55;100.00
55032;BME280;40928;51.076;7.950;2023-08-24T07:15:54;97155.59;;;16.75;100.00
55032;BME280;40928;51.076;7.950;2023-08-24T07:18:21;97152.31;;;16.83;100.00
55032;BME280;40928;51.076;7.950;2023-08-24T07:20:49;97146.06;;;16.93;100.00
55032;BME280;40928;51.076;7.950;2023-08-24T07:23:24;97144.13;;;17.09;100.00
55032;BME280;40928;51.076;7.950;2023-08-24T07:25:49;97151.63;;;17.17;100.00
55032;BME280;40928;51.076;7.950;2023-08-24T07:28:16;97138.09;;;17.28;100.00
55032;BME280;40928;51.076;7.950;2023-08-24T07:30:42;97145.81;;;17.40;100.00
55032;BME280;40928;51.076;7.950;2023-08-24T07:33:07;97142.81;;;17.46;100.00
55032;BME280;40928;51.076;7.950;2023-08-24T07:35:33;97138.97;;;17.58;100.00
55032;BME280;40928;51.076;7.950;2023-08-24T07:38:03;97130.78;;;17.68;100.00
55032;BME280;40928;51.076;7.950;2023-08-24T07:40:30;97125.25;;;17.84;100.00
55032;BME280;40928;51.076;7.950;2023-08-24T07:42:56;97124.06;;;18.00;100.00
55032;BME280;40928;51.076;7.950;2023-08-24T07:45:23;97120.06;;;18.22;100.00
55032;BME280;40928;51.076;7.950;2023-08-24T07:47:49;97119.63;;;18.39;100.00
55032;BME280;40928;51.076;7.950;2023-08-24T07:50:15;97119.16;;;18.56;100.00
55032;BME280;40928;51.076;7.950;2023-08-24T07:52:44;97115.13;;;18.78;100.00
55032;BME280;40928;51.076;7.950;2023-08-24T07:55:18;97122.69;;;19.00;100.00
55032;BME280;40928;51.076;7.950;2023-08-24T07:57:44;97109.25;;;19.14;100.00
55032;BME280;40928;51.076;7.950;2023-08-24T08:00:11;97114.38;;;19.35;100.00
55032;BME280;40928;51.076;7.950;2023-08-24T08:02:38;97118.38;;;19.56;100.00
55032;BME280;40928;51.076;7.950;2023-08-24T08:05:05;97113.44;;;19.77;100.00
55032;BME280;40928;51.076;7.950;2023-08-24T08:07:36;97107.00;;;20.06;100.00
55032;BME280;40928;51.076;7.950;2023-08-24T08:10:05;97102.44;;;20.35;100.00
55032;BME280;40928;51.076;7.950;2023-08-24T08:12:32;97114.59;;;20.51;100.00
55032;BME280;40928;51.076;7.950;2023-08-24T08:14:59;97112.25;;;20.87;100.00
55032;BME280;40928;51.076;7.950;2023-08-24T08:17:30;97118.56;;;21.10;100.00
55032;BME280;40928;51.076;7.950;2023-08-24T08:22:38;97115.59;;;21.57;100.00
55032;BME280;40928;51.076;7.950;2023-08-24T08:25:05;97121.91;;;21.66;100.00
55032;BME280;40928;51.076;7.950;2023-08-24T08:27:32;97120.88;;;21.76;100.00
55032;BME280;40928;51.076;7.950;2023-08-24T08:29:58;97115.50;;;21.85;100.00
55032;BME280;40928;51.076;7.950;2023-08-24T08:32:24;97117.97;;;21.95;100.00
55032;BME280;40928;51.076;7.950;2023-08-24T08:34:55;97118.69;;;22.10;100.00
55032;BME280;40928;51.076;7.950;2023-08-24T08:37:22;97119.75;;;22.31;100.00
55032;BME280;40928;51.076;7.950;2023-08-24T08:39:48;97120.78;;;22.44;100.00
55032;BME280;40928;51.076;7.950;2023-08-24T08:42:14;97113.66;;;22.57;100.00
55032;BME280;40928;51.076;7.950;2023-08-24T08:44:41;97112.88;;;22.74;99.99
55032;BME280;40928;51.076;7.950;2023-08-24T08:47:09;97105.38;;;22.89;98.10
55032;BME280;40928;51.076;7.950;2023-08-24T08:49:39;97107.31;;;23.06;95.63
55032;BME280;40928;51.076;7.950;2023-08-24T08:52:09;97110.88;;;23.15;94.05
55032;BME280;40928;51.076;7.950;2023-08-24T08:54:35;97093.56;;;23.11;92.87
55032;BME280;40928;51.076;7.950;2023-08-24T08:57:01;97096.78;;;23.13;92.56
55032;BME280;40928;51.076;7.950;2023-08-24T08:59:27;97089.25;;;23.19;94.36
55032;BME280;40928;51.076;7.950;2023-08-24T09:01:57;97083.19;;;23.31;94.69
55032;BME280;40928;51.076;7.950;2023-08-24T09:04:35;97084.31;;;23.47;91.72
55032;BME280;40928;51.076;7.950;2023-08-24T09:07:00;97080.91;;;23.68;90.71
55032;BME280;40928;51.076;7.950;2023-08-24T09:09:30;97073.00;;;23.93;90.07
55032;BME280;40928;51.076;7.950;2023-08-24T09:11:56;97062.09;;;24.01;87.16
55032;BME280;40928;51.076;7.950;2023-08-24T09:14:25;97072.25;;;24.31;85.97
55032;BME280;40928;51.076;7.950;2023-08-24T09:16:51;97065.78;;;24.44;83.25
55032;BME280;40928;51.076;7.950;2023-08-24T09:19:16;97057.22;;;24.55;80.29
55032;BME280;40928;51.076;7.950;2023-08-24T09:21:48;97062.59;;;24.72;80.71
55032;BME280;40928;51.076;7.950;2023-08-24T09:24:13;97058.94;;;24.89;80.34
55032;BME280;40928;51.076;7.950;2023-08-24T09:26:39;97053.91;;;25.00;76.79
55032;BME280;40928;51.076;7.950;2023-08-24T09:29:15;97044.16;;;25.12;75.94
55032;BME280;40928;51.076;7.950;2023-08-24T09:31:50;97040.34;;;25.46;73.85
55032;BME280;40928;51.076;7.950;2023-08-24T09:34:19;97024.66;;;25.56;72.02
55032;BME280;40928;51.076;7.950;2023-08-24T09:36:46;97013.34;;;25.45;71.68
55032;BME280;40928;51.076;7.950;2023-08-24T09:39:16;97014.06;;;25.54;74.32
55032;BME280;40928;51.076;7.950;2023-08-24T09:41:46;97002.63;;;25.73;74.23
55032;BME280;40928;51.076;7.950;2023-08-24T09:44:17;97002.75;;;26.02;74.04
55032;BME280;40928;51.076;7.950;2023-08-24T09:46:46;96995.38;;;26.14;69.82
55032;BME280;40928;51.076;7.950;2023-08-24T09:49:12;96985.22;;;26.40;66.36
55032;BME280;40928;51.076;7.950;2023-08-24T09:51:42;96974.00;;;26.57;67.36
55032;BME280;40928;51.076;7.950;2023-08-24T09:54:11;96972.06;;;26.58;64.22
55032;BME280;40928;51.076;7.950;2023-08-24T09:56:41;96976.66;;;26.41;65.34
55032;BME280;40928;51.076;7.950;2023-08-24T09:59:17;96963.75;;;26.54;64.74
55032;BME280;40928;51.076;7.950;2023-08-24T10:01:49;96971.31;;;26.45;64.13
55032;BME280;40928;51.076;7.950;2023-08-24T10:04:17;96967.13;;;26.64;65.25
55032;BME280;40928;51.076;7.950;2023-08-24T10:06:49;96954.22;;;26.77;63.02
55032;BME280;40928;51.076;7.950;2023-08-24T10:09:38;96950.09;;;26.95;62.67
55032;BME280;40928;51.076;7.950;2023-08-24T10:12:08;96951.69;;;27.25;62.99
55032;BME280;40928;51.076;7.950;2023-08-24T10:17:15;96964.41;;;27.77;61.31
55032;BME280;40928;51.076;7.950;2023-08-24T10:19:42;96977.16;;;27.86;60.27
55032;BME280;40928;51.076;7.950;2023-08-24T10:22:11;96974.94;;;27.59;57.08
55032;BME280;40928;51.076;7.950;2023-08-24T10:24:39;96978.47;;;27.92;56.74
55032;BME280;40928;51.076;7.950;2023-08-24T10:27:08;96983.88;;;28.04;55.87
55032;BME280;40928;51.076;7.950;2023-08-24T10:29:37;97001.22;;;28.40;54.56
55032;BME280;40928;51.076;7.950;2023-08-24T10:32:06;96999.69;;;28.59;51.73
55032;BME280;40928;51.076;7.950;2023-08-24T10:34:33;96999.16;;;28.53;51.57
55032;BME280;40928;51.076;7.950;2023-08-24T10:37:11;97004.72;;;28.57;52.97
55032;BME280;40928;51.076;7.950;2023-08-24T10:39:46;97011.75;;;28.90;52.41
55032;BME280;40928;51.076;7.950;2023-08-24T10:42:19;97015.78;;;28.96;51.35
55032;BME280;40928;51.076;7.950;2023-08-24T10:44:47;97018.88;;;29.11;51.56
55032;BME280;40928;51.076;7.950;2023-08-24T10:50:06;97007.53;;;28.96;51.17
55032;BME280;40928;51.076;7.950;2023-08-24T10:52:34;97015.50;;;29.01;52.79
55032;BME280;40928;51.076;7.950;2023-08-24T10:55:04;97015.84;;;28.29;53.67
55032;BME280;40928;51.076;7.950;2023-08-24T10:57:38;97025.38;;;28.51;52.30
55032;BME280;40928;51.076;7.950;2023-08-24T11:00:13;97017.50;;;27.85;52.74
55032;BME280;40928;51.076;7.950;2023-08-24T11:02:45;97015.13;;;28.32;52.87
55032;BME280;40928;51.076;7.950;2023-08-24T11:07:59;97020.44;;;28.40;53.75
55032;BME280;40928;51.076;7.950;2023-08-24T11:10:33;97024.63;;;28.18;52.60
55032;BME280;40928;51.076;7.950;2023-08-24T11:13:09;97015.94;;;28.16;52.81
55032;BME280;40928;51.076;7.950;2023-08-24T11:15:43;97014.88;;;28.37;52.38
55032;BME280;40928;51.076;7.950;2023-08-24T11:21:05;96998.97;;;28.98;50.41
55032;BME280;40928;51.076;7.950;2023-08-24T11:23:33;97000.03;;;28.93;49.25
55032;BME280;40928;51.076;7.950;2023-08-24T11:26:03;96995.66;;;28.21;51.32
55032;BME280;40928;51.076;7.950;2023-08-24T11:28:33;96986.91;;;28.31;52.10
55032;BME280;40928;51.076;7.950;2023-08-24T11:30:59;96982.81;;;28.41;52.16
55032;BME280;40928;51.076;7.950;2023-08-24T11:33:35;96990.72;;;28.98;50.78
55032;BME280;40928;51.076;7.950;2023-08-24T11:36:03;96990.56;;;29.30;50.05
55032;BME280;40928;51.076;7.950;2023-08-24T11:41:16;96988.25;;;29.98;46.41
55032;BME280;40928;51.076;7.950;2023-08-24T11:43:47;96999.81;;;29.84;46.57
55032;BME280;40928;51.076;7.950;2023-08-24T11:46:17;96993.44;;;29.57;46.62
55032;BME280;40928;51.076;7.950;2023-08-24T11:48:44;96984.56;;;29.67;46.58
55032;BME280;40928;51.076;7.950;2023-08-24T11:51:11;96971.31;;;29.10;48.37
55032;BME280;40928;51.076;7.950;2023-08-24T11:53:45;96979.13;;;29.08;48.28
55032;BME280;40928;51.076;7.950;2023-08-24T11:56:12;96983.06;;;28.71;48.28
55032;BME280;40928;51.076;7.950;2023-08-24T11:58:42;96977.84;;;28.66;49.42
55032;BME280;40928;51.076;7.950;2023-08-24T12:01:11;96974.50;;;28.57;49.52
55032;BME280;40928;51.076;7.950;2023-08-24T12:03:38;96964.31;;;28.57;50.44
55032;BME280;40928;51.076;7.950;2023-08-24T12:06:15;96960.94;;;28.29;50.19
55032;BME280;40928;51.076;7.950;2023-08-24T12:08:45;96961.84;;;28.52;50.49
55032;BME280;40928;51.076;7.950;2023-08-24T12:11:18;96967.09;;;28.41;50.62
55032;BME280;40928;51.076;7.950;2023-08-24T12:13:54;96979.97;;;27.73;51.92
55032;BME280;40928;51.076;7.950;2023-08-24T12:16:21;96974.19;;;27.46;53.67
55032;BME280;40928;51.076;7.950;2023-08-24T12:18:53;96968.50;;;27.39;53.83
55032;BME280;40928;51.076;7.950;2023-08-24T12:21:23;96975.75;;;27.31;54.83
55032;BME280;40928;51.076;7.950;2023-08-24T12:24:04;96973.09;;;27.35;54.97
55032;BME280;40928;51.076;7.950;2023-08-24T12:26:32;96972.19;;;27.59;54.82
55032;BME280;40928;51.076;7.950;2023-08-24T12:29:05;96977.16;;;27.41;54.82
55032;BME280;40928;51.076;7.950;2023-08-24T12:31:32;96965.81;;;27.27;55.69
55032;BME280;40928;51.076;7.950;2023-08-24T12:34:05;96968.63;;;27.59;55.45
55032;BME280;40928;51.076;7.950;2023-08-24T12:36:38;96972.59;;;27.45;55.74
55032;BME280;40928;51.076;7.950;2023-08-24T12:39:05;96972.94;;;27.15;57.89
55032;BME280;40928;51.076;7.950;2023-08-24T12:41:33;96975.38;;;27.04;57.45
55032;BME280;40928;51.076;7.950;2023-08-24T12:43:59;96963.50;;;27.13;56.98
55032;BME280;40928;51.076;7.950;2023-08-24T12:46:30;96967.69;;;27.23;57.41
55032;BME280;40928;51.076;7.950;2023-08-24T12:48:56;96958.25;;;27.36;57.27
55032;BME280;40928;51.076;7.950;2023-08-24T12:51:22;96963.09;;;27.43;56.51
55032;BME280;40928;51.076;7.950;2023-08-24T12:53:49;96971.59;;;27.38;57.00
55032;BME280;40928;51.076;7.950;2023-08-24T12:56:15;96957.75;;;27.46;56.74
55032;BME280;40928;51.076;7.950;2023-08-24T12:58:42;96965.41;;;27.41;57.31
55032;BME280;40928;51.076;7.950;2023-08-24T13:01:08;96960.31;;;27.27;57.01
55032;BME280;40928;51.076;7.950;2023-08-24T13:03:34;96962.19;;;27.23;58.03
55032;BME280;40928;51.076;7.950;2023-08-24T13:06:02;96977.56;;;26.99;56.06
55032;BME280;40928;51.076;7.950;2023-08-24T13:08:29;96965.63;;;26.91;56.03
55032;BME280;40928;51.076;7.950;2023-08-24T13:10:55;96955.19;;;27.09;55.71
55032;BME280;40928;51.076;7.950;2023-08-24T13:13:21;96939.56;;;26.97;57.38
55032;BME280;40928;51.076;7.950;2023-08-24T13:15:49;96943.59;;;27.16;56.99
55032;BME280;40928;51.076;7.950;2023-08-24T13:18:15;96944.38;;;27.16;55.09
55032;BME280;40928;51.076;7.950;2023-08-24T13:20:44;96939.03;;;26.92;55.10
55032;BME280;40928;51.076;7.950;2023-08-24T13:23:09;96938.38;;;26.82;56.24
55032;BME280;40928;51.076;7.950;2023-08-24T13:25:35;96937.78;;;26.77;56.19
55032;BME280;40928;51.076;7.950;2023-08-24T13:28:01;96927.22;;;26.63;56.60
55032;BME280;40928;51.076;7.950;2023-08-24T13:30:27;96927.69;;;26.52;57.50